Time;durP1;ratioP1;P1;durP2;ratioP2;P2;SDS_P1;SDS_P2;PMS_P1;PMS_P2;Temp;Humidity;BMP_temperature;BMP_pressure;BME280_temperature;BME280_humidity;BME280_pressure;Samples;Min_cycle;Max_cycle;Signal;HPM_P1;HPM_P2
2023/07/25 00:02:25;;;;;;;6.57;3.95;;;18.80;99.90;;;;;;4960258;28;20038;-75
2023/07/25 00:04:51;;;;;;;7.28;3.40;;;18.70;99.90;;;;;;4966704;28;20023;-74
2023/07/25 00:07:17;;;;;;;6.78;4.38;;;18.70;99.90;;;;;;4962339;28;20046;-75
2023/07/25 00:09:42;;;;;;;7.40;4.25;;;18.70;99.90;;;;;;4964560;28;20042;-75
2023/07/25 00:12:08;;;;;;;7.65;4.85;;;18.70;99.90;;;;;;4959871;28;20031;-74
2023/07/25 00:14:34;;;;;;;7.60;3.70;;;18.70;99.90;;;;;;4958597;28;20050;-77
2023/07/25 00:17:00;;;;;;;9.52;4.90;;;18.60;99.90;;;;;;4964018;28;20121;-75
2023/07/25 00:19:26;;;;;;;6.88;3.40;;;18.60;99.90;;;;;;4965555;28;20042;-75
2023/07/25 00:21:52;;;;;;;7.78;3.72;;;18.50;99.90;;;;;;4964958;28;20042;-75
2023/07/25 00:24:18;;;;;;;6.00;2.92;;;18.50;99.90;;;;;;4967303;28;20403;-74
2023/07/25 00:26:44;;;;;;;7.03;3.40;;;18.60;99.90;;;;;;4959556;28;20064;-75
2023/07/25 00:29:09;;;;;;;8.60;3.67;;;18.50;99.90;;;;;;4957164;28;20035;-75
2023/07/25 00:31:35;;;;;;;13.25;3.83;;;18.50;99.90;;;;;;4964714;28;20035;-75
2023/07/25 00:34:01;;;;;;;9.50;4.53;;;18.60;99.90;;;;;;4963569;28;20031;-75
2023/07/25 00:36:27;;;;;;;7.43;3.85;;;18.60;99.90;;;;;;4954444;28;20121;-75
2023/07/25 00:38:52;;;;;;;9.05;3.83;;;18.50;99.90;;;;;;4957514;28;20031;-75
2023/07/25 00:41:18;;;;;;;9.32;4.68;;;18.50;99.90;;;;;;4969910;28;20082;-75
2023/07/25 00:43:44;;;;;;;7.05;4.95;;;18.60;99.90;;;;;;4963661;28;20031;-75
2023/07/25 00:46:10;;;;;;;7.18;3.40;;;18.60;99.90;;;;;;4963140;28;20069;-75
2023/07/25 00:48:36;;;;;;;10.68;4.57;;;18.50;99.90;;;;;;4963272;28;20444;-75
2023/07/25 00:51:03;;;;;;;8.27;3.60;;;18.50;99.90;;;;;;4953919;28;20063;-75
2023/07/25 00:53:29;;;;;;;8.73;4.15;;;18.40;99.90;;;;;;4963361;28;20051;-74
2023/07/25 00:55:54;;;;;;;9.43;4.28;;;18.30;99.90;;;;;;4961360;28;20031;-75
2023/07/25 00:58:21;;;;;;;6.35;3.42;;;18.30;99.90;;;;;;4960993;28;20027;-74
2023/07/25 01:00:46;;;;;;;6.50;4.15;;;18.40;99.90;;;;;;4959817;28;20027;-75
2023/07/25 01:03:12;;;;;;;9.35;3.92;;;18.40;99.90;;;;;;4958648;28;20038;-75
2023/07/25 01:05:49;;;;;;;6.75;3.85;;;18.30;99.90;;;;;;4965969;28;20540;-74
2023/07/25 01:08:14;;;;;;;11.90;4.38;;;18.30;99.90;;;;;;4960462;28;20099;-75
2023/07/25 01:10:40;;;;;;;8.73;4.13;;;18.50;99.90;;;;;;4956879;28;20031;-75
2023/07/25 01:13:06;;;;;;;7.63;4.60;;;18.50;99.90;;;;;;4961340;28;20027;-75
2023/07/25 01:15:32;;;;;;;9.52;5.22;;;18.50;99.90;;;;;;4965082;28;20030;-75
2023/07/25 01:17:59;;;;;;;10.32;5.05;;;18.50;99.90;;;;;;4958876;28;20039;-75
2023/07/25 01:20:25;;;;;;;10.30;5.50;;;18.50;99.90;;;;;;4959286;28;20031;-75
2023/07/25 01:22:53;;;;;;;8.32;5.25;;;18.60;99.90;;;;;;4970759;28;20877;-75
2023/07/25 01:25:18;;;;;;;8.57;5.38;;;18.60;99.90;;;;;;4964698;28;20035;-75
2023/07/25 01:27:44;;;;;;;8.45;5.43;;;18.60;99.90;;;;;;4958918;28;20089;-75
2023/07/25 01:30:10;;;;;;;10.30;5.38;;;18.60;99.90;;;;;;4959545;28;20038;-75
2023/07/25 01:32:36;;;;;;;10.18;5.72;;;18.60;99.90;;;;;;4962925;28;20495;-74
2023/07/25 01:35:01;;;;;;;10.10;5.50;;;18.60;99.90;;;;;;4955158;28;20504;-75
2023/07/25 01:37:27;;;;;;;8.38;4.45;;;18.60;99.90;;;;;;4964609;28;20077;-76
2023/07/25 01:39:52;;;;;;;8.15;4.25;;;18.50;99.90;;;;;;4957517;28;20031;-75
2023/07/25 01:42:18;;;;;;;9.48;3.92;;;18.30;99.90;;;;;;4959868;28;20030;-75
2023/07/25 01:44:44;;;;;;;7.47;4.35;;;18.30;99.90;;;;;;4953131;28;20028;-75
2023/07/25 01:47:09;;;;;;;9.27;5.82;;;18.50;99.90;;;;;;4965152;28;20031;-75
2023/07/25 01:49:35;;;;;;;8.88;6.10;;;18.40;99.90;;;;;;4958855;28;20512;-75
2023/07/25 01:52:00;;;;;;;9.63;6.20;;;18.50;99.90;;;;;;4957533;28;20370;-75
2023/07/25 01:54:26;;;;;;;12.57;7.25;;;18.50;99.90;;;;;;4957753;28;20062;-74
2023/07/25 01:56:52;;;;;;;13.35;7.03;;;18.60;99.90;;;;;;4959051;28;20039;-75
2023/07/25 01:59:18;;;;;;;9.55;6.65;;;18.60;99.90;;;;;;4961640;28;20039;-75
2023/07/25 02:01:43;;;;;;;12.18;7.90;;;18.60;99.90;;;;;;4960456;28;20027;-75
2023/07/25 02:04:09;;;;;;;11.55;6.57;;;18.60;99.90;;;;;;4960524;28;20495;-75
2023/07/25 02:06:35;;;;;;;8.95;5.65;;;18.60;99.90;;;;;;4956881;28;20037;-75
2023/07/25 02:09:00;;;;;;;10.13;5.13;;;18.60;99.90;;;;;;4956737;28;20390;-75
2023/07/25 02:11:26;;;;;;;6.82;4.90;;;18.50;99.90;;;;;;4952188;28;20481;-75
2023/07/25 02:13:52;;;;;;;8.00;4.78;;;18.30;99.90;;;;;;4962686;28;20030;-74
2023/07/25 02:16:17;;;;;;;8.05;3.63;;;18.40;99.90;;;;;;4962528;28;20034;-74
2023/07/25 02:18:43;;;;;;;7.13;3.63;;;18.30;99.90;;;;;;4959141;28;20481;-75
2023/07/25 02:21:09;;;;;;;9.23;4.18;;;18.20;99.90;;;;;;4967116;28;20061;-75
2023/07/25 02:23:34;;;;;;;9.75;3.53;;;18.30;99.90;;;;;;4957853;28;20039;-75
2023/07/25 02:26:00;;;;;;;5.38;3.38;;;18.40;99.90;;;;;;4957518;28;20027;-74
2023/07/25 02:28:26;;;;;;;8.88;3.92;;;18.40;99.90;;;;;;4968816;28;20045;-74
2023/07/25 02:30:51;;;;;;;8.25;4.70;;;18.40;99.90;;;;;;4961541;28;20027;-74
2023/07/25 02:33:17;;;;;;;6.90;4.13;;;18.40;99.90;;;;;;4961792;28;20432;-75
2023/07/25 02:35:42;;;;;;;7.78;4.38;;;18.40;99.90;;;;;;4966498;28;20469;-75
2023/07/25 02:38:09;;;;;;;6.30;3.75;;;18.40;99.90;;;;;;4958253;28;20033;-74
2023/07/25 02:40:34;;;;;;;9.32;4.57;;;18.40;99.90;;;;;;4960114;28;20038;-74
2023/07/25 02:43:02;;;;;;;9.25;4.40;;;18.40;99.90;;;;;;4957392;28;20027;-75
2023/07/25 02:45:28;;;;;;;8.18;3.75;;;18.50;99.90;;;;;;4954277;28;20809;-75
2023/07/25 02:47:54;;;;;;;8.13;3.97;;;18.40;99.90;;;;;;4957725;28;20047;-75
2023/07/25 02:50:19;;;;;;;9.93;4.68;;;18.40;99.90;;;;;;4961719;28;20027;-75
2023/07/25 02:52:45;;;;;;;8.48;4.18;;;18.40;99.90;;;;;;4964333;28;20797;-74
2023/07/25 02:55:10;;;;;;;7.72;4.25;;;18.40;99.90;;;;;;4919850;28;1123869;-75
2023/07/25 02:57:36;;;;;;;5.82;3.17;;;18.50;99.90;;;;;;4959580;28;20047;-75
2023/07/25 03:00:02;;;;;;;10.23;3.72;;;18.70;99.90;;;;;;4957540;28;20537;-75
2023/07/25 03:02:27;;;;;;;7.82;4.32;;;18.80;99.90;;;;;;4961020;28;20035;-74
2023/07/25 03:04:54;;;;;;;6.72;3.63;;;18.70;99.90;;;;;;4956946;28;20030;-75
2023/07/25 03:07:19;;;;;;;7.97;3.92;;;18.70;99.90;;;;;;4957840;28;20024;-74
2023/07/25 03:09:45;;;;;;;5.93;3.65;;;18.80;99.90;;;;;;4949372;28;20097;-74
2023/07/25 03:12:11;;;;;;;11.05;4.32;;;18.80;99.90;;;;;;4959403;28;20031;-74
2023/07/25 03:14:36;;;;;;;7.35;5.13;;;18.80;99.90;;;;;;4954979;28;20441;-74
2023/07/25 03:17:02;;;;;;;7.97;4.30;;;18.70;99.90;;;;;;4948933;28;20035;-76
2023/07/25 03:19:28;;;;;;;9.15;5.63;;;18.70;99.90;;;;;;4955274;28;20066;-74
2023/07/25 03:21:54;;;;;;;11.25;4.93;;;18.60;99.90;;;;;;4960332;28;20086;-75
2023/07/25 03:24:19;;;;;;;8.20;4.07;;;18.70;99.90;;;;;;4956436;28;20035;-75
2023/07/25 03:26:45;;;;;;;8.10;4.32;;;18.60;99.90;;;;;;4951320;28;20034;-75
2023/07/25 03:29:11;;;;;;;9.77;5.60;;;18.60;99.90;;;;;;4953368;28;20035;-77
2023/07/25 03:31:36;;;;;;;12.90;6.40;;;18.50;99.90;;;;;;4954199;28;20512;-75
2023/07/25 03:34:02;;;;;;;12.48;5.85;;;18.50;99.90;;;;;;4952739;28;20069;-76
2023/07/25 03:36:28;;;;;;;9.85;6.40;;;18.50;99.90;;;;;;4949660;28;20062;-75
2023/07/25 03:38:53;;;;;;;9.95;6.25;;;18.40;99.90;;;;;;4958381;28;20484;-76
2023/07/25 03:41:19;;;;;;;10.88;5.57;;;18.40;99.90;;;;;;4953144;28;20377;-76
2023/07/25 03:43:45;;;;;;;11.75;6.63;;;18.30;99.90;;;;;;4946760;28;20472;-75
2023/07/25 03:46:10;;;;;;;12.48;5.22;;;18.10;99.90;;;;;;4957246;28;20413;-75
2023/07/25 03:48:36;;;;;;;5.68;2.33;;;18.00;99.90;;;;;;4950428;28;20466;-75
2023/07/25 03:51:02;;;;;;;8.82;4.03;;;18.60;99.90;;;;;;4957303;28;20184;-75
2023/07/25 03:53:27;;;;;;;9.27;5.13;;;18.80;99.90;;;;;;4955257;28;20126;-75
2023/07/25 03:55:53;;;;;;;6.85;4.00;;;18.50;99.90;;;;;;4961620;28;20095;-74
2023/07/25 03:58:19;;;;;;;8.98;4.85;;;18.40;99.90;;;;;;4955748;28;20038;-76
2023/07/25 04:00:44;;;;;;;7.63;4.55;;;18.30;99.90;;;;;;4955931;28;20034;-78
2023/07/25 04:03:10;;;;;;;8.85;5.18;;;18.30;99.90;;;;;;4951577;28;20030;-76
2023/07/25 04:05:35;;;;;;;9.07;6.43;;;18.30;99.90;;;;;;4953043;28;20512;-78
2023/07/25 04:08:01;;;;;;;14.13;6.97;;;18.20;99.90;;;;;;4958001;28;20130;-77
2023/07/25 04:10:27;;;;;;;11.23;6.80;;;18.20;99.90;;;;;;4956541;28;20035;-76
2023/07/25 04:12:52;;;;;;;8.52;6.13;;;18.10;99.90;;;;;;4955112;28;20054;-76
2023/07/25 04:15:18;;;;;;;10.48;5.80;;;18.10;99.90;;;;;;4957911;28;20037;-76
2023/07/25 04:17:44;;;;;;;11.50;5.97;;;18.10;99.90;;;;;;4954816;28;20702;-77
2023/07/25 04:20:10;;;;;;;12.63;7.50;;;18.10;99.90;;;;;;4954030;28;20117;-76
2023/07/25 04:22:35;;;;;;;11.85;5.55;;;18.20;99.90;;;;;;4955048;28;20034;-77
2023/07/25 04:25:01;;;;;;;9.32;6.15;;;18.20;99.90;;;;;;4953319;28;20050;-79
2023/07/25 04:27:30;;;;;;;11.98;5.78;;;18.10;99.90;;;;;;4958246;28;20037;-76
2023/07/25 04:29:56;;;;;;;9.00;4.93;;;18.10;99.90;;;;;;4954454;28;20101;-77
2023/07/25 04:32:22;;;;;;;8.85;5.68;;;18.00;99.90;;;;;;4963408;28;20473;-76
2023/07/25 04:34:47;;;;;;;8.55;5.13;;;18.10;99.90;;;;;;4956308;28;20685;-77
2023/07/25 04:37:13;;;;;;;9.30;4.85;;;18.10;99.90;;;;;;4953909;28;20034;-77
2023/07/25 04:39:39;;;;;;;6.95;4.40;;;18.10;99.90;;;;;;4958499;28;20056;-76
2023/07/25 04:42:05;;;;;;;12.48;5.97;;;18.20;99.90;;;;;;4957172;28;20031;-76
2023/07/25 04:44:31;;;;;;;7.90;3.92;;;18.20;99.90;;;;;;4952413;28;20209;-77
2023/07/25 04:46:56;;;;;;;7.15;3.83;;;18.10;99.90;;;;;;4954602;28;20688;-76
2023/07/25 04:49:22;;;;;;;6.90;4.20;;;18.20;99.90;;;;;;4951170;28;20047;-77
2023/07/25 04:51:48;;;;;;;6.47;2.83;;;18.10;99.90;;;;;;4952639;28;20038;-77
2023/07/25 04:54:13;;;;;;;6.30;3.00;;;18.10;99.90;;;;;;4957745;28;20058;-76
2023/07/25 04:56:41;;;;;;;7.38;2.42;;;18.10;99.90;;;;;;4954138;28;20481;-76
2023/07/25 04:59:07;;;;;;;4.57;2.30;;;18.10;99.90;;;;;;4949165;28;20031;-76
2023/07/25 05:01:33;;;;;;;4.43;1.95;;;18.20;99.90;;;;;;4958152;28;20039;-76
2023/07/25 05:03:58;;;;;;;5.55;2.20;;;18.20;99.90;;;;;;4953086;28;20476;-76
2023/07/25 05:06:24;;;;;;;5.53;2.97;;;18.20;99.90;;;;;;4957276;28;20034;-77
2023/07/25 05:08:50;;;;;;;6.85;3.53;;;18.20;99.90;;;;;;4950719;28;20053;-76
2023/07/25 05:11:15;;;;;;;6.20;3.15;;;18.30;99.90;;;;;;4950404;28;20027;-76
2023/07/25 05:13:41;;;;;;;5.40;2.15;;;18.30;99.90;;;;;;4948718;28;20028;-76
2023/07/25 05:16:06;;;;;;;6.03;2.42;;;18.10;99.90;;;;;;4952486;28;20042;-76
2023/07/25 05:18:32;;;;;;;5.00;2.40;;;18.10;99.90;;;;;;4952471;28;20031;-76
2023/07/25 05:20:58;;;;;;;5.35;2.55;;;18.20;99.90;;;;;;4947845;28;20628;-75
2023/07/25 05:23:23;;;;;;;5.85;2.33;;;18.10;99.90;;;;;;4950469;28;20392;-74
2023/07/25 05:25:49;;;;;;;5.40;2.45;;;18.10;99.90;;;;;;4955128;28;20038;-75
2023/07/25 05:28:17;;;;;;;6.25;3.28;;;18.30;99.90;;;;;;4956341;28;20034;-75
2023/07/25 05:30:42;;;;;;;5.43;2.75;;;18.40;99.90;;;;;;4963646;28;20023;-73
2023/07/25 05:33:08;;;;;;;6.07;3.05;;;18.40;99.90;;;;;;4954192;28;20520;-75
2023/07/25 05:35:33;;;;;;;7.57;2.92;;;18.40;99.90;;;;;;4962214;28;20035;-76
2023/07/25 05:38:00;;;;;;;7.00;2.35;;;18.40;99.90;;;;;;4952263;28;20280;-75
2023/07/25 05:40:26;;;;;;;4.85;2.60;;;18.40;99.90;;;;;;4948576;28;20035;-75
2023/07/25 05:42:52;;;;;;;4.35;2.15;;;18.40;99.90;;;;;;4959574;28;20053;-76
2023/07/25 05:45:18;;;;;;;4.82;2.15;;;18.50;99.90;;;;;;4952285;28;20057;-75
2023/07/25 05:47:44;;;;;;;3.80;2.00;;;18.60;99.90;;;;;;4953825;28;20043;-74
2023/07/25 05:50:10;;;;;;;3.60;1.70;;;18.60;99.90;;;;;;4950226;28;20565;-76
2023/07/25 05:52:35;;;;;;;3.63;1.90;;;18.60;99.90;;;;;;4957763;28;20031;-75
2023/07/25 05:55:01;;;;;;;4.50;2.08;;;18.50;99.90;;;;;;4960890;28;20054;-75
2023/07/25 05:57:27;;;;;;;4.50;1.80;;;18.50;99.90;;;;;;4944476;28;20168;-74
2023/07/25 05:59:52;;;;;;;4.57;2.60;;;18.60;99.90;;;;;;4956545;28;20038;-75
2023/07/25 06:02:19;;;;;;;4.97;2.80;;;18.60;99.90;;;;;;4958688;28;20035;-75
2023/07/25 06:04:46;;;;;;;6.55;3.70;;;18.50;99.90;;;;;;4953586;28;20029;-74
2023/07/25 06:07:13;;;;;;;6.18;3.03;;;18.40;99.90;;;;;;4956695;28;20042;-74
2023/07/25 06:09:39;;;;;;;5.00;2.50;;;18.30;99.90;;;;;;4950889;28;20623;-73
2023/07/25 06:12:06;;;;;;;4.80;2.30;;;18.30;99.90;;;;;;4958685;28;20031;-74
2023/07/25 06:14:32;;;;;;;3.88;1.90;;;18.10;99.90;;;;;;4951816;28;20027;-73
2023/07/25 06:16:58;;;;;;;3.95;2.10;;;18.10;99.90;;;;;;4953569;28;20034;-73
2023/07/25 06:19:23;;;;;;;4.30;2.03;;;18.10;99.90;;;;;;4958084;28;20035;-74
2023/07/25 06:21:50;;;;;;;5.95;3.00;;;18.20;99.90;;;;;;4963071;28;20030;-73
2023/07/25 06:24:16;;;;;;;3.97;1.88;;;18.40;99.90;;;;;;4947422;28;21036;-73
2023/07/25 06:26:42;;;;;;;4.45;1.83;;;18.20;99.90;;;;;;4961848;28;20037;-74
2023/07/25 06:29:07;;;;;;;4.57;1.95;;;18.20;99.90;;;;;;4958288;28;20473;-75
2023/07/25 06:31:33;;;;;;;3.55;1.50;;;18.10;99.90;;;;;;4956883;28;20042;-74
2023/07/25 06:33:59;;;;;;;2.95;1.58;;;18.00;99.90;;;;;;4953340;28;20026;-74
2023/07/25 06:36:25;;;;;;;4.00;1.60;;;18.00;99.90;;;;;;4952994;28;20487;-73
2023/07/25 06:38:50;;;;;;;3.63;1.80;;;18.10;99.90;;;;;;4950814;28;20033;-74
2023/07/25 06:41:16;;;;;;;2.90;1.50;;;18.10;99.90;;;;;;4945857;28;20039;-74
2023/07/25 06:43:42;;;;;;;4.82;2.25;;;18.20;99.90;;;;;;4952158;28;20022;-73
2023/07/25 06:46:07;;;;;;;3.78;1.85;;;18.40;99.90;;;;;;4956255;28;20101;-73
2023/07/25 06:48:33;;;;;;;4.30;1.60;;;18.60;99.90;;;;;;4948105;28;20523;-74
2023/07/25 06:50:58;;;;;;;3.83;1.70;;;18.80;99.90;;;;;;4953838;28;20035;-74
2023/07/25 06:53:24;;;;;;;3.20;1.60;;;19.00;99.90;;;;;;4952382;28;20819;-74
2023/07/25 06:55:50;;;;;;;3.35;1.83;;;19.30;99.90;;;;;;4945693;28;20516;-74
2023/07/25 06:58:15;;;;;;;4.50;2.22;;;19.50;99.90;;;;;;4953967;28;20089;-74
2023/07/25 07:00:41;;;;;;;3.83;2.05;;;19.60;99.90;;;;;;4949724;28;20037;-72
2023/07/25 07:03:07;;;;;;;8.25;2.53;;;19.60;99.90;;;;;;4949574;28;20027;-74
2023/07/25 07:05:33;;;;;;;5.32;2.63;;;19.60;99.90;;;;;;4948915;28;20531;-73
2023/07/25 07:08:00;;;;;;;5.45;2.70;;;19.90;99.90;;;;;;4952779;28;20546;-77
2023/07/25 07:10:26;;;;;;;7.65;3.63;;;19.90;99.90;;;;;;4954706;28;20114;-77
2023/07/25 07:12:53;;;;;;;7.60;2.83;;;20.20;99.90;;;;;;4951728;28;20115;-75
2023/07/25 07:15:24;;;;;;;7.13;2.58;;;20.60;99.90;;;;;;4954240;28;20579;-75
2023/07/25 07:17:51;;;;;;;5.68;3.28;;;20.90;99.90;;;;;;4947200;28;20023;-76
2023/07/25 07:20:17;;;;;;;7.55;3.13;;;20.80;99.90;;;;;;4955999;28;20034;-75
2023/07/25 07:22:43;;;;;;;7.05;3.97;;;20.80;99.90;;;;;;4948895;28;20047;-73
2023/07/25 07:25:09;;;;;;;6.80;3.20;;;20.70;99.90;;;;;;4950816;28;20036;-75
2023/07/25 07:27:34;;;;;;;4.68;2.38;;;20.80;99.90;;;;;;4958786;28;20034;-76
2023/07/25 07:30:00;;;;;;;6.82;3.17;;;20.80;99.90;;;;;;4961075;28;20054;-74
2023/07/25 07:32:25;;;;;;;6.47;3.10;;;20.70;99.90;;;;;;4954256;28;20043;-76
2023/07/25 07:34:51;;;;;;;11.90;10.80;;;20.70;99.90;;;;;;4954586;28;20046;-75
2023/07/25 07:37:17;;;;;;;4.97;2.83;;;20.60;99.90;;;;;;4950771;28;20045;-74
2023/07/25 07:39:42;;;;;;;5.68;2.90;;;20.50;99.90;;;;;;4951807;28;20030;-75
2023/07/25 07:42:08;;;;;;;5.82;3.75;;;20.40;99.90;;;;;;4951338;28;20386;-74
2023/07/25 07:44:34;;;;;;;8.80;3.88;;;20.40;99.90;;;;;;4953652;28;20042;-74
2023/07/25 07:46:59;;;;;;;6.72;3.30;;;20.20;99.90;;;;;;4958102;28;20031;-75
2023/07/25 07:49:25;;;;;;;6.90;3.85;;;20.00;99.90;;;;;;4957346;28;20046;-74
2023/07/25 07:51:51;;;;;;;6.80;3.22;;;20.00;99.90;;;;;;4953430;28;20027;-74
2023/07/25 07:54:17;;;;;;;5.85;3.00;;;19.90;99.90;;;;;;4947155;28;20106;-76
2023/07/25 07:56:43;;;;;;;5.43;2.97;;;19.90;99.90;;;;;;4955717;28;20043;-75
2023/07/25 07:59:09;;;;;;;6.57;3.45;;;19.90;99.90;;;;;;4951399;28;20039;-77
2023/07/25 08:01:34;;;;;;;7.57;3.80;;;19.80;99.90;;;;;;4951891;28;20043;-77
2023/07/25 08:04:00;;;;;;;5.45;3.28;;;19.80;99.90;;;;;;4951377;28;20184;-77
2023/07/25 08:06:27;;;;;;;7.10;3.95;;;19.80;99.90;;;;;;4946486;28;20114;-74
2023/07/25 08:08:53;;;;;;;6.53;4.10;;;19.90;99.90;;;;;;4949783;28;20031;-76
2023/07/25 08:11:19;;;;;;;7.53;4.00;;;19.80;99.90;;;;;;4958184;28;20380;-76
2023/07/25 08:13:44;;;;;;;7.30;4.25;;;19.80;99.90;;;;;;4956887;28;20023;-74
2023/07/25 08:16:10;;;;;;;4.82;3.10;;;19.70;99.90;;;;;;4958815;28;20121;-76
2023/07/25 08:18:36;;;;;;;7.15;3.28;;;19.60;99.90;;;;;;4954180;28;20608;-76
2023/07/25 08:21:01;;;;;;;4.88;2.85;;;19.60;99.90;;;;;;4949946;28;20058;-77
2023/07/25 08:23:27;;;;;;;7.85;3.67;;;19.60;99.90;;;;;;4958758;28;20043;-79
2023/07/25 08:25:57;;;;;;;7.90;3.25;;;19.50;99.90;;;;;;4954499;28;20078;-81
2023/07/25 08:28:23;;;;;;;9.02;3.60;;;19.60;99.90;;;;;;4952363;28;20039;-75
2023/07/25 08:31:01;;;;;;;5.53;2.78;;;19.60;99.90;;;;;;4956022;28;20039;-78
2023/07/25 08:33:37;;;;;;;7.75;3.90;;;19.70;99.90;;;;;;4957672;28;20404;-77
2023/07/25 08:36:03;;;;;;;6.53;3.00;;;19.80;99.90;;;;;;4954602;28;20066;-76
2023/07/25 08:38:29;;;;;;;4.72;2.40;;;19.80;99.90;;;;;;4957721;28;20416;-77
2023/07/25 08:41:05;;;;;;;4.95;2.83;;;19.70;99.90;;;;;;4959653;28;20110;-75
2023/07/25 08:43:35;;;;;;;7.68;2.92;;;19.70;99.90;;;;;;4960456;28;20191;-75
2023/07/25 08:46:07;;;;;;;4.78;2.90;;;19.90;99.90;;;;;;4954701;28;20030;-76
2023/07/25 08:48:34;;;;;;;4.18;2.63;;;20.00;99.90;;;;;;4952489;28;20043;-74
2023/07/25 08:51:02;;;;;;;6.38;2.72;;;19.90;99.90;;;;;;4949274;28;20102;-76
2023/07/25 08:53:29;;;;;;;4.15;2.50;;;19.80;99.90;;;;;;4965454;28;20043;-76
2023/07/25 08:55:57;;;;;;;6.50;3.00;;;19.70;99.90;;;;;;4952222;28;20173;-76
2023/07/25 08:58:24;;;;;;;5.22;3.17;;;19.80;99.90;;;;;;4959454;28;20121;-76
2023/07/25 09:00:50;;;;;;;8.55;2.75;;;19.80;99.90;;;;;;4956325;28;20031;-76
2023/07/25 09:03:16;;;;;;;5.75;2.58;;;19.90;99.90;;;;;;4957724;28;20034;-76
2023/07/25 09:05:42;;;;;;;5.43;2.72;;;20.00;99.90;;;;;;4956148;28;20373;-75
2023/07/25 09:08:08;;;;;;;6.93;2.92;;;20.30;99.90;;;;;;4969027;28;20084;-77
2023/07/25 09:10:34;;;;;;;6.85;2.90;;;20.50;99.90;;;;;;4947956;28;20126;-76
2023/07/25 09:13:00;;;;;;;6.32;2.67;;;20.70;99.90;;;;;;4957904;28;20035;-75
2023/07/25 09:15:26;;;;;;;5.28;3.00;;;21.00;99.90;;;;;;4964081;28;20027;-75
2023/07/25 09:17:53;;;;;;;4.90;2.92;;;21.10;99.90;;;;;;4956793;28;20393;-75
2023/07/25 09:20:19;;;;;;;5.75;3.08;;;21.20;99.90;;;;;;4968101;28;20172;-75
2023/07/25 09:22:48;;;;;;;6.97;3.42;;;21.20;99.90;;;;;;4959552;28;20031;-74
2023/07/25 09:25:15;;;;;;;4.38;2.55;;;21.30;99.90;;;;;;4961440;28;20596;-76
2023/07/25 09:27:45;;;;;;;7.60;3.03;;;21.50;99.90;;;;;;4949866;28;20047;-75
2023/07/25 09:30:12;;;;;;;6.25;3.78;;;21.50;99.90;;;;;;4954333;28;20389;-76
2023/07/25 09:32:43;;;;;;;5.72;4.03;;;21.80;99.90;;;;;;4968800;28;20030;-76
2023/07/25 09:35:11;;;;;;;6.80;3.42;;;22.20;99.90;;;;;;4970382;28;20038;-76
2023/07/25 09:37:37;;;;;;;7.47;3.55;;;22.20;99.90;;;;;;4976972;28;20027;-76
2023/07/25 09:40:08;;;;;;;5.50;3.45;;;21.90;99.90;;;;;;4964834;28;20382;-75
2023/07/25 09:42:40;;;;;;;6.38;3.20;;;21.90;99.90;;;;;;4955069;28;20159;-74
2023/07/25 09:45:08;;;;;;;6.68;2.97;;;21.80;99.90;;;;;;4967657;28;20046;-75
2023/07/25 09:47:35;;;;;;;5.32;3.03;;;21.80;99.90;;;;;;4961367;28;20030;-74
2023/07/25 09:50:04;;;;;;;5.40;3.00;;;21.90;99.90;;;;;;4950756;28;20041;-73
2023/07/25 09:52:39;;;;;;;6.40;3.65;;;21.80;99.90;;;;;;4962728;28;20023;-73
2023/07/25 09:55:06;;;;;;;7.45;3.60;;;22.00;99.90;;;;;;4954813;28;20047;-73
2023/07/25 09:57:32;;;;;;;9.90;4.20;;;22.10;99.90;;;;;;4957176;28;20031;-72
2023/07/25 10:00:00;;;;;;;6.07;2.97;;;22.20;99.90;;;;;;4959422;28;20031;-72
2023/07/25 10:02:25;;;;;;;7.95;3.88;;;22.30;99.90;;;;;;4960475;28;20393;-73
2023/07/25 10:04:55;;;;;;;6.82;3.30;;;22.40;99.90;;;;;;4956989;28;20031;-73
2023/07/25 10:07:23;;;;;;;5.85;3.05;;;22.50;99.90;;;;;;4962644;28;20554;-73
2023/07/25 10:09:51;;;;;;;8.88;3.47;;;22.70;99.90;;;;;;4953320;28;20212;-73
2023/07/25 10:12:17;;;;;;;5.45;3.08;;;22.80;99.90;;;;;;4957056;28;20486;-73
2023/07/25 10:14:43;;;;;;;7.57;4.03;;;22.70;99.90;;;;;;4955810;28;20581;-73
2023/07/25 10:17:08;;;;;;;7.72;3.58;;;22.70;99.90;;;;;;4955046;28;20027;-73
2023/07/25 10:19:49;;;;;;;6.55;3.50;;;22.90;99.90;;;;;;4955951;28;20887;-73
2023/07/25 10:22:15;;;;;;;6.13;3.35;;;23.00;99.90;;;;;;4953099;28;20469;-74
2023/07/25 10:24:41;;;;;;;6.50;2.85;;;23.30;99.90;;;;;;4955733;28;20034;-74
2023/07/25 10:27:11;;;;;;;5.20;3.00;;;23.50;99.90;;;;;;4949608;28;20023;-74
2023/07/25 10:29:41;;;;;;;5.43;2.92;;;23.60;99.90;;;;;;4953193;28;20043;-73
2023/07/25 10:32:08;;;;;;;5.63;3.28;;;23.80;99.90;;;;;;4958138;28;20466;-73
2023/07/25 10:34:45;;;;;;;7.63;3.90;;;24.00;99.90;;;;;;4950140;28;20031;-73
2023/07/25 10:37:30;;;;;;;5.28;3.47;;;24.30;99.90;;;;;;4958355;28;20041;-74
2023/07/25 10:40:17;;;;;;;5.53;3.30;;;24.30;99.90;;;;;;4950393;28;20082;-73
2023/07/25 10:42:49;;;;;;;6.10;3.45;;;24.20;99.90;;;;;;4955827;28;20146;-73
2023/07/25 10:45:27;;;;;;;6.22;2.72;;;23.80;99.90;;;;;;4953970;28;20537;-73
2023/07/25 10:47:53;;;;;;;6.50;3.05;;;24.10;99.90;;;;;;4956529;28;20038;-73
2023/07/25 10:50:24;;;;;;;7.20;3.50;;;24.30;99.90;;;;;;4957739;28;20619;-73
2023/07/25 10:52:50;;;;;;;4.90;3.30;;;24.40;99.90;;;;;;4953593;28;20161;-73
2023/07/25 10:55:16;;;;;;;5.10;2.95;;;24.80;99.90;;;;;;4948656;28;20034;-73
2023/07/25 10:57:41;;;;;;;6.70;3.30;;;24.90;99.90;;;;;;4961086;28;20539;-73
2023/07/25 11:00:10;;;;;;;4.72;2.58;;;24.80;99.90;;;;;;4956788;28;20038;-73
2023/07/25 11:02:45;;;;;;;5.55;3.08;;;24.60;99.90;;;;;;4961334;28;20114;-73
2023/07/25 11:05:13;;;;;;;5.85;2.72;;;24.50;99.90;;;;;;4961655;28;20094;-73
2023/07/25 11:07:45;;;;;;;6.00;3.10;;;25.00;99.90;;;;;;4963490;28;20035;-74
2023/07/25 11:10:11;;;;;;;3.97;2.28;;;25.20;99.90;;;;;;4960525;28;20432;-74
2023/07/25 11:12:37;;;;;;;5.00;2.28;;;25.30;99.90;;;;;;4959553;28;20031;-74
2023/07/25 11:15:03;;;;;;;4.70;2.53;;;25.10;99.90;;;;;;4966196;28;20732;-74
2023/07/25 11:17:29;;;;;;;5.35;3.15;;;25.10;99.90;;;;;;4963621;28;20038;-74
2023/07/25 11:20:21;;;;;;;5.93;2.70;;;25.20;99.90;;;;;;4959245;28;20118;-73
2023/07/25 11:22:51;;;;;;;5.72;2.70;;;25.50;99.90;;;;;;4957614;28;20077;-74
2023/07/25 11:25:18;;;;;;;5.85;2.70;;;25.70;99.90;;;;;;4966672;28;20046;-75
2023/07/25 11:27:46;;;;;;;4.93;2.47;;;25.90;99.90;;;;;;4966577;28;20122;-75
2023/07/25 11:30:16;;;;;;;4.72;2.67;;;25.50;99.90;;;;;;4964226;28;20039;-76
2023/07/25 11:32:52;;;;;;;4.20;2.40;;;25.10;99.90;;;;;;4960370;28;20038;-77
2023/07/25 11:35:19;;;;;;;6.95;2.75;;;25.40;99.90;;;;;;4963051;28;20034;-75
2023/07/25 11:37:46;;;;;;;5.00;2.90;;;25.60;99.90;;;;;;4957262;28;20506;-75
2023/07/25 11:40:20;;;;;;;4.13;2.38;;;25.70;99.90;;;;;;4965613;28;20489;-75
2023/07/25 11:42:47;;;;;;;;;;;25.80;99.90;;;;;;4962521;28;20030;-76
2023/07/25 11:45:14;;;;;;;3.63;1.83;;;26.10;99.90;;;;;;4966700;28;20009;-75
2023/07/25 11:47:48;;;;;;;6.00;2.58;;;25.90;99.90;;;;;;4957343;28;20039;-75
2023/07/25 11:50:14;;;;;;;4.95;2.78;;;26.00;99.90;;;;;;4960856;28;20392;-77
2023/07/25 11:52:42;;;;;;;5.82;2.75;;;26.20;99.90;;;;;;4953578;28;20037;-75
2023/07/25 11:55:09;;;;;;;8.40;2.72;;;26.20;99.90;;;;;;4958350;28;20054;-75
2023/07/25 11:57:40;;;;;;;5.53;2.50;;;26.20;99.90;;;;;;4954582;28;20433;-75
2023/07/25 12:00:15;;;;;;;6.68;2.10;;;26.30;99.90;;;;;;4956557;28;20118;-75
2023/07/25 12:02:42;;;;;;;5.97;2.58;;;26.50;99.90;;;;;;4951366;28;20031;-75
2023/07/25 12:05:27;;;;;;;3.88;1.95;;;26.50;99.90;;;;;;4956167;28;20066;-75
2023/07/25 12:08:00;;;;;;;6.20;2.17;;;26.60;99.90;;;;;;4964200;28;20034;-76
2023/07/25 12:10:34;;;;;;;3.47;1.85;;;26.60;99.90;;;;;;4963811;28;20098;-75
2023/07/25 12:13:02;;;;;;;;;;;26.60;99.00;;;;;;4951616;28;20118;-75
2023/07/25 12:15:51;;;;;;;5.93;2.25;;;26.30;99.40;;;;;;4955921;28;19917;-74
2023/07/25 12:18:29;;;;;;;6.93;2.55;;;26.20;99.90;;;;;;4959994;28;20038;-74
2023/07/25 12:20:58;;;;;;;4.13;2.38;;;26.60;99.90;;;;;;4954865;28;20042;-75
2023/07/25 12:23:38;;;;;;;5.88;2.65;;;27.00;99.90;;;;;;4957035;28;20035;-75
2023/07/25 12:26:04;;;;;;;4.28;2.42;;;27.00;99.90;;;;;;4962522;28;20031;-75
2023/07/25 12:28:44;;;;;;;4.03;2.05;;;27.00;99.90;;;;;;4954819;28;20469;-76
2023/07/25 12:31:10;;;;;;;4.03;2.15;;;27.10;99.90;;;;;;4951066;28;20031;-75
2023/07/25 12:33:36;;;;;;;5.22;2.50;;;27.20;99.90;;;;;;4952622;28;20027;-74
2023/07/25 12:36:02;;;;;;;7.07;3.00;;;27.20;99.90;;;;;;4952420;28;20090;-75
2023/07/25 12:38:28;;;;;;;3.72;1.95;;;27.10;99.40;;;;;;4963537;28;20029;-74
2023/07/25 12:40:54;;;;;;;5.63;2.53;;;27.10;99.20;;;;;;4957235;28;20106;-75
2023/07/25 12:43:20;;;;;;;5.85;2.42;;;27.30;99.90;;;;;;4954310;28;20078;-75
2023/07/25 12:45:46;;;;;;;4.13;2.03;;;27.50;99.40;;;;;;4953295;28;20034;-74